createdAt,value
2022-08-20T00:01:17.376Z,20.83
2022-08-20T00:03:50.169Z,20.86
2022-08-20T00:06:24.234Z,20.80
2022-08-20T00:08:52.552Z,20.79
2022-08-20T00:11:25.146Z,20.74
2022-08-20T00:13:55.806Z,20.79
2022-08-20T00:16:26.963Z,20.79
2022-08-20T00:18:54.386Z,20.76
2022-08-20T00:21:23.266Z,20.67
2022-08-20T00:23:53.742Z,20.63
2022-08-20T00:26:22.615Z,20.65
2022-08-20T00:28:50.872Z,20.74
2022-08-20T00:31:20.494Z,20.73
2022-08-20T00:33:48.677Z,20.67
2022-08-20T00:36:18.979Z,20.71
2022-08-20T00:38:47.271Z,20.74
2022-08-20T00:41:25.999Z,20.72
2022-08-20T00:44:15.955Z,20.76
2022-08-20T00:46:44.606Z,20.78
2022-08-20T00:49:22.808Z,20.75
2022-08-20T00:52:19.749Z,20.69
2022-08-20T00:54:58.050Z,20.68
2022-08-20T00:58:00.866Z,20.60
2022-08-20T01:00:42.955Z,20.49
2022-08-20T01:03:14.941Z,20.51
2022-08-20T01:05:46.559Z,20.45
2022-08-20T01:08:16.650Z,20.48
2022-08-20T01:10:48.168Z,20.46
2022-08-20T01:13:20.775Z,20.43
2022-08-20T01:15:51.685Z,20.42
2022-08-20T01:18:24.577Z,20.41
2022-08-20T01:21:04.934Z,20.35
2022-08-20T01:23:55.799Z,20.33
2022-08-20T01:26:36.018Z,20.26
2022-08-20T01:29:13.017Z,20.22
2022-08-20T01:31:41.773Z,20.21
2022-08-20T01:34:12.503Z,20.17
2022-08-20T01:36:48.451Z,20.18
2022-08-20T01:39:21.031Z,20.17
2022-08-20T01:42:07.908Z,20.07
2022-08-20T01:44:38.036Z,20.00
2022-08-20T01:47:11.015Z,20.07
2022-08-20T01:49:47.189Z,20.01
2022-08-20T01:52:25.855Z,20.02
2022-08-20T01:54:53.340Z,20.06
2022-08-20T01:57:26.791Z,19.95
2022-08-20T01:59:54.705Z,19.94
2022-08-20T02:02:24.253Z,19.82
2022-08-20T02:04:53.022Z,19.53
2022-08-20T02:07:23.701Z,19.90
2022-08-20T02:09:52.209Z,19.72
2022-08-20T02:12:19.943Z,19.66
2022-08-20T02:14:53.214Z,19.66
2022-08-20T02:17:23.322Z,19.63
2022-08-20T02:20:19.451Z,19.53
2022-08-20T02:22:52.991Z,19.50
2022-08-20T02:25:26.372Z,19.53
2022-08-20T02:27:55.564Z,19.44
2022-08-20T02:30:30.599Z,19.49
2022-08-20T02:32:59.912Z,19.34
2022-08-20T02:35:27.958Z,19.42
2022-08-20T02:37:56.413Z,19.15
2022-08-20T02:40:30.606Z,19.29
2022-08-20T02:43:00.498Z,19.26
2022-08-20T02:45:28.747Z,19.26
2022-08-20T02:47:57.359Z,19.20
2022-08-20T02:50:26.967Z,19.05
2022-08-20T02:52:54.734Z,19.07
2022-08-20T02:55:27.884Z,19.08
2022-08-20T02:58:00.451Z,19.07
2022-08-20T03:00:38.368Z,19.01
2022-08-20T03:03:09.118Z,18.69
2022-08-20T03:05:40.082Z,19.02
2022-08-20T03:08:12.013Z,18.81
2022-08-20T03:10:41.483Z,18.68
2022-08-20T03:13:12.710Z,18.86
2022-08-20T03:15:46.573Z,18.91
2022-08-20T03:18:15.282Z,18.76
2022-08-20T03:20:46.011Z,18.75
2022-08-20T03:23:14.923Z,18.69
2022-08-20T03:25:42.390Z,18.84
2022-08-20T03:28:10.370Z,18.75
2022-08-20T03:30:38.650Z,18.81
2022-08-20T03:33:06.579Z,18.80
2022-08-20T03:35:35.754Z,18.80
2022-08-20T03:38:08.277Z,18.78
2022-08-20T03:40:37.337Z,18.82
2022-08-20T03:43:08.626Z,18.81
2022-08-20T03:45:38.263Z,18.83
2022-08-20T03:48:08.434Z,18.82
2022-08-20T03:50:36.263Z,18.80
2022-08-20T03:53:04.423Z,18.80
2022-08-20T03:55:32.429Z,18.79
2022-08-20T03:58:02.853Z,18.75
2022-08-20T04:00:43.081Z,18.78
2022-08-20T04:03:11.003Z,18.80
2022-08-20T04:05:40.952Z,18.83
2022-08-20T04:08:15.847Z,18.73
2022-08-20T04:10:44.498Z,18.79
2022-08-20T04:13:12.505Z,18.77
2022-08-20T04:15:41.831Z,18.83
2022-08-20T04:18:12.147Z,18.81
2022-08-20T04:20:43.684Z,18.81
2022-08-20T04:23:12.058Z,18.80
2022-08-20T04:25:43.334Z,18.79
2022-08-20T04:28:26.982Z,18.77
2022-08-20T04:30:56.072Z,18.81
2022-08-20T04:33:33.955Z,18.81
2022-08-20T04:36:05.677Z,18.90
2022-08-20T04:38:50.068Z,18.80
2022-08-20T04:41:23.680Z,18.73
2022-08-20T04:43:54.162Z,18.63
2022-08-20T04:46:25.526Z,18.68
2022-08-20T04:48:55.228Z,18.74
2022-08-20T04:51:24.318Z,18.74
2022-08-20T04:53:54.327Z,18.66
2022-08-20T04:56:24.454Z,18.68
2022-08-20T04:58:53.596Z,18.68
2022-08-20T05:01:22.063Z,18.67
2022-08-20T05:03:49.618Z,18.69
2022-08-20T05:06:18.736Z,18.60
2022-08-20T05:08:46.204Z,18.61
2022-08-20T05:11:35.013Z,18.60
2022-08-20T05:14:09.028Z,18.56
2022-08-20T05:16:39.295Z,18.58
2022-08-20T05:19:10.371Z,18.55
2022-08-20T05:21:38.939Z,18.55
2022-08-20T05:24:07.785Z,18.59
2022-08-20T05:26:36.013Z,18.52
2022-08-20T05:29:05.316Z,18.38
2022-08-20T05:31:34.586Z,18.41
2022-08-20T05:34:11.580Z,18.40
2022-08-20T05:36:49.335Z,18.44
2022-08-20T05:39:21.605Z,18.40
2022-08-20T05:41:51.269Z,18.30
2022-08-20T05:44:19.699Z,18.36
2022-08-20T05:46:48.573Z,18.40
2022-08-20T05:49:20.150Z,18.38
2022-08-20T05:51:49.347Z,18.32
2022-08-20T05:54:17.038Z,18.29
2022-08-20T05:56:44.455Z,18.29
2022-08-20T05:59:14.012Z,18.37
2022-08-20T06:01:42.798Z,18.44
2022-08-20T06:04:28.551Z,18.43
2022-08-20T06:07:04.883Z,18.50
2022-08-20T06:09:33.420Z,18.54
2022-08-20T06:12:02.920Z,18.46
2022-08-20T06:14:30.958Z,18.48
2022-08-20T06:17:04.892Z,18.55
2022-08-20T06:19:33.925Z,18.54
2022-08-20T06:22:02.458Z,18.59
2022-08-20T06:24:44.716Z,18.61
2022-08-20T06:27:15.960Z,18.63
2022-08-20T06:29:43.813Z,18.68
2022-08-20T06:32:11.459Z,18.71
2022-08-20T06:34:50.128Z,18.74
2022-08-20T06:37:27.641Z,18.76
2022-08-20T06:40:10.687Z,18.71
2022-08-20T06:42:47.410Z,18.77
2022-08-20T06:45:26.389Z,18.74
2022-08-20T06:47:57.628Z,18.73
2022-08-20T06:50:32.591Z,18.61
2022-08-20T06:53:00.536Z,18.57
2022-08-20T06:55:28.066Z,18.50
2022-08-20T06:58:08.128Z,18.38
2022-08-20T07:00:55.516Z,18.31
2022-08-20T07:03:22.992Z,18.24
2022-08-20T07:05:50.530Z,18.26
2022-08-20T07:08:22.288Z,18.30
2022-08-20T07:10:50.871Z,18.20
2022-08-20T07:13:18.356Z,18.21
2022-08-20T07:15:46.280Z,18.22
2022-08-20T07:18:14.476Z,18.19
2022-08-20T07:20:42.216Z,18.18
2022-08-20T07:23:12.039Z,18.19
2022-08-20T07:25:41.768Z,18.22
2022-08-20T07:28:16.008Z,18.34
2022-08-20T07:31:12.035Z,18.40
2022-08-20T07:33:41.758Z,18.40
2022-08-20T07:36:10.014Z,18.41
2022-08-20T07:38:37.746Z,18.48
2022-08-20T07:41:14.793Z,18.42
2022-08-20T07:43:45.828Z,18.37
2022-08-20T07:46:16.520Z,18.45
2022-08-20T07:48:46.885Z,18.58
2022-08-20T07:51:19.266Z,18.58
2022-08-20T07:53:48.244Z,18.56
2022-08-20T07:56:22.486Z,18.63
2022-08-20T07:58:55.697Z,18.60
2022-08-20T08:01:30.284Z,18.71
2022-08-20T08:03:59.076Z,18.75
2022-08-20T08:06:29.243Z,18.69
2022-08-20T08:09:06.703Z,18.73
2022-08-20T08:11:38.249Z,18.83
2022-08-20T08:14:09.658Z,18.79
2022-08-20T08:16:38.521Z,18.86
2022-08-20T08:19:09.258Z,18.82
2022-08-20T08:21:36.775Z,18.84
2022-08-20T08:24:04.858Z,18.89
2022-08-20T08:26:32.275Z,18.86
2022-08-20T08:28:59.669Z,18.88
2022-08-20T08:31:27.474Z,18.96
2022-08-20T08:33:55.554Z,18.99
2022-08-20T08:36:23.166Z,18.97
2022-08-20T08:38:51.023Z,19.08
2022-08-20T08:41:20.398Z,19.09
2022-08-20T08:43:53.257Z,19.13
2022-08-20T08:46:27.154Z,19.16
2022-08-20T08:49:01.586Z,19.21
2022-08-20T08:52:01.406Z,19.16
2022-08-20T08:54:33.393Z,19.18
2022-08-20T08:57:01.482Z,19.20
2022-08-20T08:59:48.460Z,19.24
2022-08-20T09:02:26.150Z,19.37
2022-08-20T09:04:58.035Z,19.30
2022-08-20T09:07:29.023Z,19.25
2022-08-20T09:09:57.135Z,19.25
2022-08-20T09:12:27.759Z,19.30
2022-08-20T09:14:55.303Z,19.28
2022-08-20T09:17:24.535Z,19.29
2022-08-20T09:19:52.473Z,19.28
2022-08-20T09:22:25.549Z,19.25
2022-08-20T09:24:53.505Z,19.20
2022-08-20T09:27:21.220Z,19.23
2022-08-20T09:29:49.373Z,19.27
2022-08-20T09:32:24.540Z,19.17
2022-08-20T09:34:56.512Z,19.16
2022-08-20T09:37:32.390Z,19.23
2022-08-20T09:40:03.274Z,19.28
2022-08-20T09:42:36.304Z,19.36
2022-08-20T09:45:10.891Z,19.29
2022-08-20T09:47:41.745Z,19.33
2022-08-20T09:50:24.412Z,19.26
2022-08-20T09:52:54.367Z,19.23
2022-08-20T09:55:33.910Z,19.24
2022-08-20T09:58:26.390Z,19.29
2022-08-20T10:00:53.915Z,19.34
2022-08-20T10:03:21.454Z,19.28
2022-08-20T10:05:48.884Z,19.32
2022-08-20T10:08:16.545Z,19.31
2022-08-20T10:10:43.941Z,19.37
2022-08-20T10:13:12.740Z,19.35
2022-08-20T10:15:43.196Z,19.34
2022-08-20T10:18:12.114Z,19.41
2022-08-20T10:20:40.335Z,19.39
2022-08-20T10:23:08.178Z,19.40
2022-08-20T10:25:35.592Z,19.41
2022-08-20T10:28:03.372Z,19.46
2022-08-20T10:30:30.835Z,19.45
2022-08-20T10:32:58.339Z,19.41
2022-08-20T10:35:25.996Z,19.42
2022-08-20T10:37:53.604Z,19.39
2022-08-20T10:40:21.735Z,19.44
2022-08-20T10:42:49.198Z,19.45
2022-08-20T10:45:16.885Z,19.46
2022-08-20T10:47:45.632Z,19.44
2022-08-20T10:50:17.408Z,19.42
2022-08-20T10:52:45.671Z,19.46
2022-08-20T10:55:13.201Z,19.47
2022-08-20T10:57:42.030Z,19.54
2022-08-20T11:00:14.237Z,19.56
2022-08-20T11:02:41.965Z,19.56
2022-08-20T11:05:09.514Z,19.59
2022-08-20T11:07:50.476Z,19.58
2022-08-20T11:10:29.270Z,19.62
2022-08-20T11:12:57.004Z,19.63
2022-08-20T11:15:24.525Z,19.63
2022-08-20T11:17:52.449Z,19.66
2022-08-20T11:20:23.609Z,19.68
2022-08-20T11:22:51.253Z,19.67
2022-08-20T11:25:19.937Z,19.64
2022-08-20T11:27:50.435Z,19.64
2022-08-20T11:30:24.560Z,19.66
2022-08-20T11:32:52.489Z,19.71
2022-08-20T11:38:09.250Z,19.66
2022-08-20T11:40:36.786Z,19.70
2022-08-20T11:43:14.750Z,19.63
2022-08-20T11:45:44.115Z,19.53
2022-08-20T11:48:11.603Z,19.55
2022-08-20T11:50:39.155Z,19.61
2022-08-20T11:53:08.022Z,19.60
2022-08-20T11:55:36.005Z,19.54
2022-08-20T11:58:03.815Z,19.52
2022-08-20T12:00:33.906Z,19.55
2022-08-20T12:03:05.014Z,19.58
2022-08-20T12:05:33.565Z,19.57
2022-08-20T12:08:01.865Z,19.59
2022-08-20T12:10:30.297Z,19.51
2022-08-20T12:12:58.047Z,19.45
2022-08-20T12:15:27.492Z,19.47
2022-08-20T12:17:56.904Z,19.45
2022-08-20T12:20:24.856Z,19.49
2022-08-20T12:22:54.087Z,19.50
2022-08-20T12:25:21.657Z,19.50
2022-08-20T12:27:49.170Z,19.48
2022-08-20T12:30:20.614Z,19.46
2022-08-20T12:32:49.327Z,19.47
2022-08-20T12:35:18.610Z,19.53
2022-08-20T12:37:47.078Z,19.57
2022-08-20T12:40:32.129Z,19.54
2022-08-20T12:43:02.598Z,19.44
2022-08-20T12:45:31.227Z,19.40
2022-08-20T12:48:08.235Z,19.53
2022-08-20T12:50:37.192Z,19.50
2022-08-20T12:53:05.757Z,19.56
2022-08-20T12:55:34.781Z,19.65
2022-08-20T12:58:06.422Z,19.67
2022-08-20T13:00:38.195Z,19.59
2022-08-20T13:03:07.453Z,19.58
2022-08-20T13:05:35.625Z,19.51
2022-08-20T13:08:08.217Z,19.63
2022-08-20T13:10:42.361Z,19.62
2022-08-20T13:13:11.153Z,19.71
2022-08-20T13:15:39.387Z,19.72
2022-08-20T13:18:08.263Z,19.67
2022-08-20T13:20:37.925Z,19.74
2022-08-20T13:23:05.830Z,19.70
2022-08-20T13:25:34.098Z,19.79
2022-08-20T13:28:04.566Z,19.85
2022-08-20T13:30:34.963Z,19.83
2022-08-20T13:33:03.567Z,19.87
2022-08-20T13:35:31.461Z,19.74
2022-08-20T13:37:59.014Z,19.79
2022-08-20T13:40:26.875Z,19.74
2022-08-20T13:42:54.550Z,19.68
2022-08-20T13:45:22.154Z,19.68
2022-08-20T13:47:54.185Z,19.77
2022-08-20T13:50:26.652Z,19.87
2022-08-20T13:52:54.756Z,19.87
2022-08-20T13:55:25.539Z,19.99
2022-08-20T13:57:53.911Z,20.03
2022-08-20T14:00:32.756Z,20.05
2022-08-20T14:03:05.947Z,19.98
2022-08-20T14:05:35.014Z,19.98
2022-08-20T14:08:17.389Z,19.95
2022-08-20T14:10:48.998Z,19.95
2022-08-20T14:13:21.200Z,19.99
2022-08-20T14:15:49.425Z,20.03
2022-08-20T14:18:17.165Z,20.01
2022-08-20T14:20:45.543Z,19.90
2022-08-20T14:23:13.376Z,19.86
2022-08-20T14:25:41.195Z,19.78
2022-08-20T14:28:26.531Z,19.67
2022-08-20T14:30:54.107Z,19.56
2022-08-20T14:33:22.963Z,19.30
2022-08-20T14:35:50.699Z,19.20
2022-08-20T14:38:18.130Z,19.10
2022-08-20T14:40:45.718Z,19.04
2022-08-20T14:43:13.195Z,18.90
2022-08-20T14:45:40.584Z,18.84
2022-08-20T14:48:09.442Z,18.64
2022-08-20T14:50:37.470Z,18.48
2022-08-20T14:53:05.703Z,18.45
2022-08-20T14:55:37.330Z,18.42
2022-08-20T14:58:12.748Z,18.32
2022-08-20T15:00:41.701Z,18.32
2022-08-20T15:03:09.438Z,18.31
2022-08-20T15:05:39.236Z,18.34
2022-08-20T15:08:06.837Z,18.45
2022-08-20T15:10:34.572Z,18.50
2022-08-20T15:13:02.616Z,18.54
2022-08-20T15:15:30.398Z,18.56
2022-08-20T15:18:00.364Z,18.56
2022-08-20T15:20:31.265Z,18.52
2022-08-20T15:22:59.561Z,18.53
2022-08-20T15:25:36.681Z,18.53
2022-08-20T15:28:07.301Z,18.51
2022-08-20T15:30:35.277Z,18.54
2022-08-20T15:33:03.238Z,18.59
2022-08-20T15:35:30.753Z,18.62
2022-08-20T15:37:59.521Z,18.67
2022-08-20T15:40:30.351Z,18.67
2022-08-20T15:42:59.958Z,17.99
2022-08-20T15:45:48.413Z,18.71
2022-08-20T15:48:21.323Z,18.69
2022-08-20T15:51:07.679Z,18.74
2022-08-20T15:54:00.538Z,18.78
2022-08-20T15:56:36.812Z,18.82
2022-08-20T15:59:32.096Z,18.82
2022-08-20T16:02:17.563Z,18.86
2022-08-20T16:05:11.714Z,18.82
2022-08-20T16:08:12.972Z,18.82
2022-08-20T16:11:23.373Z,18.80
2022-08-20T16:13:53.408Z,18.29
2022-08-20T16:17:01.119Z,18.84
2022-08-20T16:19:56.219Z,18.87
2022-08-20T16:22:25.584Z,18.79
2022-08-20T16:24:53.115Z,18.80
2022-08-20T16:27:47.247Z,18.86
2022-08-20T16:30:40.445Z,18.90
2022-08-20T16:33:16.465Z,18.91
2022-08-20T16:35:57.070Z,18.95
2022-08-20T16:38:53.311Z,19.00
2022-08-20T16:41:40.840Z,18.99
2022-08-20T16:44:32.015Z,19.01
2022-08-20T16:47:27.443Z,18.99
2022-08-20T16:50:02.339Z,18.98
2022-08-20T16:52:30.162Z,19.02
2022-08-20T16:54:57.653Z,19.01
2022-08-20T16:57:28.179Z,19.01
2022-08-20T16:59:55.613Z,19.02
2022-08-20T17:02:24.018Z,19.02
2022-08-20T17:04:59.041Z,19.05
2022-08-20T17:07:46.060Z,19.01
2022-08-20T17:10:20.523Z,19.00
2022-08-20T17:12:54.527Z,18.97
2022-08-20T17:15:25.676Z,18.91
2022-08-20T17:17:55.926Z,18.95
2022-08-20T17:20:28.123Z,18.94
2022-08-20T17:23:14.712Z,18.90
2022-08-20T17:25:42.233Z,18.92
2022-08-20T17:28:17.120Z,18.93
2022-08-20T17:30:46.202Z,18.90
2022-08-20T17:33:31.590Z,18.83
2022-08-20T17:36:08.290Z,18.80
2022-08-20T17:38:40.593Z,18.74
2022-08-20T17:41:17.187Z,18.73
2022-08-20T17:43:45.735Z,18.74
2022-08-20T17:46:16.714Z,18.73
2022-08-20T17:48:46.977Z,18.73
2022-08-20T17:51:24.112Z,18.75
2022-08-20T17:53:57.072Z,18.74
2022-08-20T17:56:37.989Z,18.74
2022-08-20T17:59:24.039Z,18.76
2022-08-20T18:02:08.401Z,18.73
2022-08-20T18:04:36.063Z,18.77
2022-08-20T18:07:15.346Z,18.78
2022-08-20T18:10:18.427Z,18.79
2022-08-20T18:13:11.029Z,18.77
2022-08-20T18:15:47.704Z,18.79
2022-08-20T18:18:55.035Z,18.80
2022-08-20T18:21:50.096Z,18.75
2022-08-20T18:24:29.207Z,18.75
2022-08-20T18:27:02.897Z,18.77
2022-08-20T18:29:41.131Z,18.76
2022-08-20T18:32:25.273Z,18.25
2022-08-20T18:34:53.769Z,18.75
2022-08-20T18:37:27.676Z,18.71
2022-08-20T18:40:22.531Z,18.67
2022-08-20T18:42:50.375Z,18.67
2022-08-20T18:45:30.353Z,18.65
2022-08-20T18:47:57.937Z,18.67
2022-08-20T18:50:40.943Z,18.68
2022-08-20T18:53:20.130Z,18.66
2022-08-20T18:56:01.045Z,18.55
2022-08-20T18:58:50.167Z,18.46
2022-08-20T19:01:20.191Z,18.48
2022-08-20T19:03:54.549Z,18.48
2022-08-20T19:06:33.988Z,18.47
2022-08-20T19:09:29.260Z,18.50
2022-08-20T19:12:43.973Z,18.52
2022-08-20T19:15:20.312Z,18.55
2022-08-20T19:18:17.248Z,18.56
2022-08-20T19:20:56.790Z,18.06
2022-08-20T19:23:27.718Z,18.58
2022-08-20T19:26:25.212Z,18.58
2022-08-20T19:29:02.560Z,18.59
2022-08-20T19:31:32.951Z,18.59
2022-08-20T19:34:23.786Z,18.57
2022-08-20T19:37:35.825Z,18.46
2022-08-20T19:40:01.950Z,18.48
2022-08-20T19:42:42.136Z,18.50
2022-08-20T19:45:18.687Z,18.52
2022-08-20T19:48:27.617Z,18.55
2022-08-20T19:51:25.520Z,18.57
2022-08-20T19:53:53.322Z,18.57
2022-08-20T19:56:24.530Z,18.59
2022-08-20T19:59:16.072Z,18.57
2022-08-20T20:02:00.183Z,18.57
2022-08-20T20:04:30.063Z,18.61
2022-08-20T20:06:58.519Z,18.59
2022-08-20T20:09:29.143Z,18.57
2022-08-20T20:12:00.392Z,18.57
2022-08-20T20:14:31.358Z,18.58
2022-08-20T20:16:59.712Z,18.59
2022-08-20T20:19:28.248Z,18.58
2022-08-20T20:22:24.551Z,18.54
2022-08-20T20:25:03.312Z,18.55
2022-08-20T20:27:32.204Z,18.57
2022-08-20T20:30:04.571Z,18.58
2022-08-20T20:32:34.136Z,18.59
2022-08-20T20:35:06.008Z,18.63
2022-08-20T20:37:46.691Z,18.63
2022-08-20T20:40:52.376Z,18.60
2022-08-20T20:43:31.340Z,18.57
2022-08-20T20:46:01.415Z,18.55
2022-08-20T20:48:39.637Z,18.56
2022-08-20T20:51:29.269Z,18.57
2022-08-20T20:54:03.956Z,18.57
2022-08-20T20:56:43.333Z,18.57
2022-08-20T20:59:11.480Z,18.58
2022-08-20T21:01:49.087Z,18.59
2022-08-20T21:04:20.043Z,18.60
2022-08-20T21:06:48.010Z,18.58
2022-08-20T21:09:15.814Z,18.57
2022-08-20T21:11:43.214Z,18.59
2022-08-20T21:14:11.209Z,18.58
2022-08-20T21:16:38.836Z,18.59
2022-08-20T21:19:08.211Z,18.60
2022-08-20T21:21:37.619Z,18.62
2022-08-20T21:24:05.728Z,18.61
2022-08-20T21:26:33.960Z,18.60
2022-08-20T21:29:01.470Z,18.59
2022-08-20T21:31:34.084Z,18.54
2022-08-20T21:34:02.107Z,18.54
2022-08-20T21:36:29.878Z,18.54
2022-08-20T21:38:57.475Z,18.55
2022-08-20T21:41:30.092Z,18.56
2022-08-20T21:44:02.703Z,18.51
2022-08-20T21:46:31.915Z,18.48
2022-08-20T21:48:59.495Z,18.46
2022-08-20T21:51:30.580Z,18.44
2022-08-20T21:54:00.572Z,18.45
2022-08-20T21:56:28.353Z,18.50
2022-08-20T21:59:00.735Z,18.51
2022-08-20T22:01:28.538Z,18.54
2022-08-20T22:03:56.099Z,18.53
2022-08-20T22:06:24.517Z,18.48
2022-08-20T22:08:52.042Z,18.50
2022-08-20T22:11:20.761Z,18.48
2022-08-20T22:13:48.376Z,18.49
2022-08-20T22:16:18.906Z,18.49
2022-08-20T22:18:47.956Z,18.53
2022-08-20T22:21:22.487Z,18.55
2022-08-20T22:23:50.520Z,18.52
2022-08-20T22:26:19.339Z,18.49
2022-08-20T22:28:51.138Z,18.53
2022-08-20T22:31:23.202Z,18.55
2022-08-20T22:33:50.718Z,18.56
2022-08-20T22:36:18.412Z,18.55
2022-08-20T22:38:47.354Z,18.57
2022-08-20T22:41:22.778Z,18.59
2022-08-20T22:43:56.857Z,18.62
2022-08-20T22:46:28.490Z,18.60
2022-08-20T22:48:56.954Z,18.65
2022-08-20T22:51:28.935Z,18.68
2022-08-20T22:53:59.185Z,18.71
2022-08-20T22:56:27.249Z,18.75
2022-08-20T22:58:59.290Z,18.79
2022-08-20T23:01:27.500Z,18.78
2022-08-20T23:04:05.254Z,18.79
2022-08-20T23:06:32.783Z,18.76
2022-08-20T23:09:00.172Z,18.76
2022-08-20T23:11:27.736Z,18.73
2022-08-20T23:13:56.940Z,18.74
2022-08-20T23:16:26.079Z,18.75
2022-08-20T23:18:53.596Z,18.76
2022-08-20T23:21:20.973Z,18.78
2022-08-20T23:23:48.530Z,18.80
2022-08-20T23:26:20.296Z,18.82
2022-08-20T23:28:48.113Z,18.80
2022-08-20T23:31:16.074Z,18.80
2022-08-20T23:33:44.930Z,18.79
2022-08-20T23:36:15.300Z,18.76
2022-08-20T23:38:42.912Z,18.78
2022-08-20T23:41:10.524Z,18.82
2022-08-20T23:43:38.827Z,18.84
2022-08-20T23:46:07.825Z,18.86
2022-08-20T23:48:36.138Z,18.86
2022-08-20T23:51:04.247Z,18.86
2022-08-20T23:53:31.920Z,18.81
2022-08-20T23:55:59.267Z,18.78
2022-08-20T23:58:26.748Z,18.66
